Domov
logo

Vyskúšajte rýchly a spoľahlivý webhosting

Aktuálne počasie

LZIB - letisko Bratislava

Hodnoty namerané: 03.12.2022, 06:30 SEČ
Aktuálny čas: 03.12.2022, 06:44 SEČ
Aktualizované: pred 14 min.
Teplota: 2°C, pocitová teplota -2°C
Rosný bod: 2°C
Vietor: 17 km/h 110° (VJV)
Dohľadnosť: 6000 m
Stav počasia: bez zrážok
Oblačnosť: malá oblačnosť na 152 m, zamračené na 427 m
Základňa oblačnosti: 152 m
Vlhkosť vzduchu: 100 %
Tlak vzduchu: 1024 hPa
METAR: LZIB 030530Z 11009KT 6000 FEW005 OVC014 02/02 Q1024 NOSIG

LZKZ - letisko Košice

Hodnoty namerané: 03.12.2022, 06:30 SEČ
Aktuálny čas: 03.12.2022, 06:44 SEČ
Aktualizované: pred 14 min.
Teplota: 1°C
Rosný bod: 0°C
Vietor: premenlivý 4 km/h
Dohľadnosť: viac ako 10 km
Stav počasia: bez zrážok
Oblačnosť: zamračené na 853 m
Základňa oblačnosti: 853 m
Vlhkosť vzduchu: 93 %
Tlak vzduchu: 1025 hPa
METAR: LZKZ 030530Z VRB02KT 9999 OVC028 01/00 Q1025 NOSIG

LZPP - letisko Piešťany

Hodnoty namerané: 03.12.2022, 06:30 SEČ
Aktuálny čas: 03.12.2022, 06:44 SEČ
Aktualizované: pred 14 min.
Teplota: 3°C, pocitová teplota -1°C
Rosný bod: 1°C
Vietor: 15 km/h 130° (JV)
Dohľadnosť: viac ako 10 km
Stav počasia: bez zrážok
Oblačnosť: zamračené na 518 m
Základňa oblačnosti: 518 m
Vlhkosť vzduchu: 87 %
Tlak vzduchu: 1024 hPa
METAR: LZPP 030530Z 13008KT 9999 OVC017 03/01 Q1024

LZTT - letisko Poprad Tatry

Hodnoty namerané: 03.12.2022, 06:30 SEČ
Aktuálny čas: 03.12.2022, 06:44 SEČ
Aktualizované: pred 14 min.
Teplota: -3°C, pocitová teplota -5°C
Rosný bod: -4°C
Vietor: 6 km/h 300° (ZSZ)
Dohľadnosť: 400 m
Stav počasia: mrznúci(a,e) hmla
Oblačnosť: malá oblačnosť na 30 m, zamračené na 61 m
Základňa oblačnosti: 30 m
Vlhkosť vzduchu: 93 %
Tlak vzduchu: 1022 hPa
METAR: LZTT 030530Z 30003KT 0400 R27/P2000N FZFG FEW001 OVC002 M03/M04 Q1022

LZZI - letisko Žilina

Hodnoty namerané: 03.12.2022, 06:30 SEČ
Aktuálny čas: 03.12.2022, 06:44 SEČ
Aktualizované: pred 14 min.
Teplota: 1°C, pocitová teplota -1°C
Rosný bod: -1°C
Vietor: 6 km/h 90° (V)
Dohľadnosť: 6000 m
Stav počasia: bez zrážok
Oblačnosť: zamračené na 701 m
Základňa oblačnosti: 701 m
Vlhkosť vzduchu: 87 %
Tlak vzduchu: 1023 hPa
METAR: LZZI 030530Z 09003KT 6000 OVC023 01/M01 Q1023

POZNÁMKY:

SEČ - stredoeurópsky čas (UTC+1hod.)

SELČ - stredoeurópsky letný čas (UTC+2hod.)

UTC - univerzálny svetový čas, GMT, ZULU

METAR - sú pravidelné kódované letecké meteorologické správy. Tie zostavujú a zverejňujú meteorologické stanice letísk v polhodinových/hodinových intervaloch. Na tejto stránke správy METAR zo slovenských letísk nájdete už v dekódovanej podobe.

hore